Time;durP1;ratioP1;P1;durP2;ratioP2;P2;SDS_P1;SDS_P2;PMS_P1;PMS_P2;Temp;Humidity;BMP_temperature;BMP_pressure;BME280_temperature;BME280_humidity;BME280_pressure;Samples;Min_cycle;Max_cycle;Signal;HPM_P1;HPM_P2
2022/11/05 00:10:27;;;;;;;;;;;;;;;20.34;66.17;96463.19;587487;241;68872;-69
2022/11/05 00:18:28;;;;;;;;;;;;;;;20.32;65.69;96459.99;587428;241;68660;-69
2022/11/05 00:20:59;;;;;;;;;;;;;;;20.32;66.38;96459.99;587468;240;63383;-68
2022/11/05 00:26:12;;;;;;;;;;;;;;;20.31;65.68;96464.54;587496;241;68825;-69
2022/11/05 00:28:42;;;;;;;;;;;;;;;20.32;64.80;96465.33;587461;241;65338;-69
2022/11/05 00:31:11;;;;;;;;;;;;;;;20.32;65.76;96462.66;584798;241;67636;-69
2022/11/05 00:33:39;;;;;;;;;;;;;;;20.31;64.75;96461.08;587473;241;68721;-69
2022/11/05 00:36:08;;;;;;;;;;;;;;;20.31;64.06;96458.41;587502;241;66486;-69
2022/11/05 00:38:37;;;;;;;;;;;;;;;20.32;64.52;96459.99;587514;241;69117;-69
2022/11/05 00:41:04;;;;;;;;;;;;;;;20.32;64.97;96462.66;587385;241;68762;-69
2022/11/05 00:46:17;;;;;;;;;;;;;;;20.32;65.92;96459.99;587435;241;68849;-69
2022/11/05 00:51:30;;;;;;;;;;;;;;;20.31;65.02;96450.41;587399;241;65106;-69
2022/11/05 00:53:57;;;;;;;;;;;;;;;20.30;65.38;96457.63;587452;241;68778;-69
2022/11/05 00:56:25;;;;;;;;;;;;;;;20.30;65.70;96457.63;587369;241;69301;-69
2022/11/05 00:58:52;;;;;;;;;;;;;;;20.31;65.90;96450.41;587408;240;64877;-69
2022/11/05 01:01:20;;;;;;;;;;;;;;;20.30;66.12;96441.61;590184;240;68789;-69
2022/11/05 01:03:47;;;;;;;;;;;;;;;20.29;65.76;96444.55;591181;240;68620;-69
2022/11/05 01:06:16;;;;;;;;;;;;;;;20.29;65.67;96445.34;591108;240;66382;-69
2022/11/05 01:08:44;;;;;;;;;;;;;;;20.29;65.80;96439.20;591174;240;68655;-69
2022/11/05 01:11:39;;;;;;;;;;;;;;;20.29;65.22;96439.20;591092;240;68427;-69
2022/11/05 01:13:45;;;;;;;;;;;;;;;20.30;66.19;96448.83;588285;240;62936;-69
2022/11/05 01:16:13;;;;;;;;;;;;;;;20.28;66.31;96440.30;591101;240;68436;-69
2022/11/05 01:18:40;;;;;;;;;;;;;;;20.28;65.77;96438.42;591176;240;68728;-69
2022/11/05 01:21:14;;;;;;;;;;;;;;;20.28;65.44;96438.42;591122;240;62486;-69
2022/11/05 01:23:42;;;;;;;;;;;;;;;20.29;65.96;96436.54;591165;239;69165;-70
2022/11/05 01:26:09;;;;;;;;;;;;;;;20.28;66.12;96437.62;591145;240;68563;-70
2022/11/05 01:28:39;;;;;;;;;;;;;;;20.27;65.12;96430.69;591243;239;45291;-70
2022/11/05 01:31:06;;;;;;;;;;;;;;;20.28;64.81;96426.95;591191;239;66557;-70
2022/11/05 01:33:34;;;;;;;;;;;;;;;20.28;65.10;96426.95;591240;240;66467;-70
2022/11/05 01:36:01;;;;;;;;;;;;;;;20.27;64.72;96423.50;591240;239;62748;-70
2022/11/05 01:38:29;;;;;;;;;;;;;;;20.28;65.18;96426.95;591183;240;66480;-70
2022/11/05 01:40:56;;;;;;;;;;;;;;;20.28;65.99;96416.28;591268;240;66488;-69
2022/11/05 01:43:24;;;;;;;;;;;;;;;20.27;64.81;96407.48;591127;240;62788;-70
2022/11/05 01:45:53;;;;;;;;;;;;;;;20.27;65.57;96409.34;591142;239;68779;-70
2022/11/05 01:48:28;;;;;;;;;;;;;;;20.26;65.42;96405.88;591137;240;66530;-70
2022/11/05 01:50:56;;;;;;;;;;;;;;;20.27;66.11;96398.66;591344;236;62653;-70
2022/11/05 01:53:31;;;;;;;;;;;;;;;20.26;65.53;96399.75;591102;240;66696;-70
2022/11/05 01:56:00;;;;;;;;;;;;;;;20.27;65.45;96393.33;591184;236;68571;-68
2022/11/05 01:58:30;;;;;;;;;;;;;;;20.27;65.61;96393.33;591097;236;64878;-68
2022/11/05 02:00:57;;;;;;;;;;;;;;;20.26;64.92;96394.41;591301;236;68627;-70
2022/11/05 02:03:26;;;;;;;;;;;;;;;20.25;65.58;96382.95;591126;240;68302;-70
2022/11/05 02:05:55;;;;;;;;;;;;;;;20.25;66.01;96387.50;591253;240;65231;-70
2022/11/05 02:08:30;;;;;;;;;;;;;;;20.26;66.22;96386.41;591117;240;68487;-70
2022/11/05 02:10:58;;;;;;;;;;;;;;;20.25;64.89;96387.50;591279;236;68698;-69
2022/11/05 02:13:26;;;;;;;;;;;;;;;20.25;65.17;96376.83;591182;240;65070;-69
2022/11/05 02:15:55;;;;;;;;;;;;;;;20.25;65.91;96379.49;591225;240;68385;-69
2022/11/05 02:18:24;;;;;;;;;;;;;;;20.25;65.84;96387.50;591244;236;66468;-69
2022/11/05 02:20:54;;;;;;;;;;;;;;;20.25;65.66;96382.16;591376;236;65034;-69
2022/11/05 02:23:26;;;;;;;;;;;;;;;20.24;65.12;96383.22;591247;240;68753;-69
2022/11/05 02:26:01;;;;;;;;;;;;;;;20.25;65.62;96382.16;591292;240;65547;-69
2022/11/05 02:28:30;;;;;;;;;;;;;;;20.24;65.86;96384.01;591246;240;63664;-70
2022/11/05 02:31:05;;;;;;;;;;;;;;;20.24;65.57;96378.67;591273;240;68330;-70
2022/11/05 02:33:40;;;;;;;;;;;;;;;20.24;64.75;96377.88;591348;236;68513;-70
2022/11/05 02:36:12;;;;;;;;;;;;;;;20.23;65.51;96371.75;591323;236;63765;-70
2022/11/05 02:38:44;;;;;;;;;;;;;;;20.23;65.23;96369.09;591254;240;68895;-70
2022/11/05 02:41:19;;;;;;;;;;;;;;;20.23;65.18;96370.97;591443;236;68563;-69
2022/11/05 02:43:48;;;;;;;;;;;;;;;20.23;65.72;96374.42;591343;236;62760;-70
2022/11/05 02:46:29;;;;;;;;;;;;;;;20.24;65.75;96369.88;591101;240;66477;-69
2022/11/05 02:48:58;;;;;;;;;;;;;;;20.22;65.94;96370.17;591203;240;68697;-68
2022/11/05 02:51:44;;;;;;;;;;;;;;;20.22;65.87;96372.05;591138;240;65062;-68
2022/11/05 02:54:13;;;;;;;;;;;;;;;20.22;65.04;96369.38;591193;240;68725;-69
2022/11/05 02:56:42;;;;;;;;;;;;;;;20.21;65.10;96365.90;591117;236;68583;-69
2022/11/05 02:59:09;;;;;;;;;;;;;;;20.22;65.57;96366.72;591247;240;62756;-69
2022/11/05 03:01:38;;;;;;;;;;;;;;;20.22;66.11;96374.72;582898;240;66488;-69
2022/11/05 03:04:07;;;;;;;;;;;;;;;20.21;65.95;96373.11;581723;243;69711;-69
2022/11/05 03:06:36;;;;;;;;;;;;;;;20.21;66.04;96371.23;581623;243;64908;-69
2022/11/05 03:09:11;;;;;;;;;;;;;;;20.21;66.02;96376.57;581610;243;69615;-69
2022/11/05 03:11:46;;;;;;;;;;;;;;;20.21;66.29;96378.45;581712;243;66557;-70
2022/11/05 03:14:32;;;;;;;;;;;;;;;20.19;65.69;96376.08;575556;243;65024;-69
2022/11/05 03:17:04;;;;;;;;;;;;;;;20.20;65.53;96371.53;581723;243;68667;-69
2022/11/05 03:19:41;;;;;;;;;;;;;;;20.20;66.39;96371.53;581772;239;66305;-69
2022/11/05 03:22:13;;;;;;;;;;;;;;;20.20;66.12;96374.20;581765;239;62779;-68
2022/11/05 03:24:42;;;;;;;;;;;;;;;20.18;66.09;96375.25;581678;243;68845;-68
2022/11/05 03:27:11;;;;;;;;;;;;;;;20.19;65.99;96370.74;581719;239;68965;-68
2022/11/05 03:29:43;;;;;;;;;;;;;;;20.18;65.30;96367.25;581732;242;65767;-68
2022/11/05 03:32:11;;;;;;;;;;;;;;;20.18;66.23;96364.59;581682;243;68841;-68
2022/11/05 03:34:40;;;;;;;;;;;;;;;20.18;66.16;96364.59;581706;243;66645;-68
2022/11/05 03:37:09;;;;;;;;;;;;;;;20.18;66.24;96363.80;581728;243;66178;-68
2022/11/05 03:39:38;;;;;;;;;;;;;;;20.17;65.71;96368.34;581660;243;66704;-69
2022/11/05 03:42:07;;;;;;;;;;;;;;;20.18;65.38;96372.59;581746;239;66449;-69
2022/11/05 03:44:36;;;;;;;;;;;;;;;20.17;65.37;96371.01;581658;242;62805;-69
2022/11/05 03:47:05;;;;;;;;;;;;;;;20.17;65.52;96371.01;581707;243;66203;-69
2022/11/05 03:49:34;;;;;;;;;;;;;;;20.17;66.28;96370.22;581671;243;66427;-69
2022/11/05 03:52:04;;;;;;;;;;;;;;;20.17;65.26;96365.67;581794;239;62834;-69
2022/11/05 03:54:33;;;;;;;;;;;;;;;20.17;64.79;96373.67;581434;242;68872;-69
2022/11/05 03:57:02;;;;;;;;;;;;;;;20.17;65.73;96373.67;581702;243;68497;-69
2022/11/05 03:59:31;;;;;;;;;;;;;;;20.17;65.75;96373.67;581623;243;66309;-69
2022/11/05 04:01:59;;;;;;;;;;;;;;;20.17;65.96;96373.67;581705;243;68678;-69
2022/11/05 04:04:26;;;;;;;;;;;;;;;20.16;65.69;96377.43;581645;243;68497;-69
2022/11/05 04:15:10;;;;;;;;;;;;;;;20.16;65.79;96380.10;581704;243;73077;-69
2022/11/05 04:17:38;;;;;;;;;;;;;;;20.16;66.55;96382.77;581688;243;68692;-69
2022/11/05 04:25:38;;;;;;;;;;;;;;;20.15;66.36;96373.16;581720;243;69191;-69
2022/11/05 04:28:06;;;;;;;;;;;;;;;20.14;66.59;96370.78;581744;243;68539;-69
2022/11/05 04:30:33;;;;;;;;;;;;;;;20.14;66.06;96382.25;581697;243;64861;-69
2022/11/05 04:33:11;;;;;;;;;;;;;;;20.13;65.87;96378.00;581671;243;68622;-69
2022/11/05 04:35:46;;;;;;;;;;;;;;;20.14;66.21;96379.58;581649;243;66300;-70
2022/11/05 04:38:18;;;;;;;;;;;;;;;20.14;65.34;96376.91;581672;243;64984;-70
2022/11/05 04:40:46;;;;;;;;;;;;;;;20.13;65.97;96380.66;581599;239;66439;-70
2022/11/05 04:43:15;;;;;;;;;;;;;;;20.14;65.96;96384.91;581640;243;68865;-70
2022/11/05 04:45:42;;;;;;;;;;;;;;;20.13;65.36;96386.00;581738;243;64985;-68
2022/11/05 04:48:10;;;;;;;;;;;;;;;20.12;65.61;96381.72;581747;243;68845;-68
2022/11/05 04:50:40;;;;;;;;;;;;;;;20.14;65.70;96394.80;581720;243;48453;-68
2022/11/05 04:53:07;;;;;;;;;;;;;;;20.13;64.99;96394.00;581706;243;65732;-69
2022/11/05 04:55:34;;;;;;;;;;;;;;;20.13;65.86;96398.52;581692;243;68773;-68
2022/11/05 04:58:02;;;;;;;;;;;;;;;20.14;65.80;96392.12;581727;243;68702;-69
2022/11/05 05:00:29;;;;;;;;;;;;;;;20.13;65.73;96399.34;585389;240;65047;-69
2022/11/05 05:02:57;;;;;;;;;;;;;;;20.13;65.93;96395.84;591170;240;68440;-69
2022/11/05 05:05:24;;;;;;;;;;;;;;;20.13;65.96;96399.34;591181;240;68716;-69
2022/11/05 05:07:52;;;;;;;;;;;;;;;20.13;65.28;96401.19;591107;239;65025;-69
2022/11/05 05:10:19;;;;;;;;;;;;;;;20.12;65.57;96396.94;591188;240;69087;-69
2022/11/05 05:12:47;;;;;;;;;;;;;;;20.13;65.94;96401.19;591125;240;68736;-69
2022/11/05 05:15:14;;;;;;;;;;;;;;;20.11;65.79;96406.81;591162;240;65019;-69
2022/11/05 05:17:42;;;;;;;;;;;;;;;20.12;65.62;96408.39;591142;240;68782;-69
2022/11/05 05:22:55;;;;;;;;;;;;;;;20.12;65.89;96404.94;591163;240;65155;-69
2022/11/05 05:25:23;;;;;;;;;;;;;;;20.11;65.43;96406.81;591210;240;66691;-69
2022/11/05 05:27:50;;;;;;;;;;;;;;;20.11;65.97;96406.81;591184;240;66603;-69
2022/11/05 05:30:18;;;;;;;;;;;;;;;20.11;66.18;96416.70;591158;240;62961;-69
2022/11/05 05:32:45;;;;;;;;;;;;;;;20.11;66.06;96417.48;591109;240;66647;-69
2022/11/05 05:35:13;;;;;;;;;;;;;;;20.09;64.75;96411.63;591165;240;66593;-69
2022/11/05 05:37:40;;;;;;;;;;;;;;;20.10;65.66;96426.55;591213;240;63887;-69
2022/11/05 05:40:10;;;;;;;;;;;;;;;20.09;65.96;96411.63;591153;240;66725;-69
2022/11/05 05:42:38;;;;;;;;;;;;;;;20.09;66.02;96416.96;591187;240;68763;-69
2022/11/05 05:45:06;;;;;;;;;;;;;;;20.09;65.41;96422.30;591171;239;65111;-69
2022/11/05 05:47:33;;;;;;;;;;;;;;;20.10;65.76;96420.42;591150;240;68892;-69
2022/11/05 05:50:01;;;;;;;;;;;;;;;20.09;65.31;96405.50;591256;240;68474;-69
2022/11/05 05:52:28;;;;;;;;;;;;;;;20.09;65.12;96427.63;591138;240;65144;-69
2022/11/05 05:54:56;;;;;;;;;;;;;;;20.09;65.23;96430.30;591168;240;68899;-68
2022/11/05 05:57:23;;;;;;;;;;;;;;;20.10;65.54;96428.42;591125;240;69011;-68
2022/11/05 05:59:51;;;;;;;;;;;;;;;20.09;66.05;96430.30;591091;240;65053;-69
2022/11/05 06:02:19;;;;;;;;;;;;;;;20.08;65.62;96428.72;591178;240;68828;-69
2022/11/05 06:04:46;;;;;;;;;;;;;;;20.09;65.69;96429.51;591182;240;68702;-69
2022/11/05 06:07:14;;;;;;;;;;;;;;;20.09;66.25;96424.17;591110;240;65050;-69
2022/11/05 06:09:41;;;;;;;;;;;;;;;20.08;65.25;96427.89;591177;240;68648;-69
2022/11/05 06:12:09;;;;;;;;;;;;;;;20.08;65.56;96428.72;591155;240;68340;-69
2022/11/05 06:14:36;;;;;;;;;;;;;;;20.08;63.04;96433.23;591129;239;64990;-69
2022/11/05 06:17:03;;;;;;;;;;;;;;;20.07;65.93;96432.44;591219;240;65993;-69
2022/11/05 06:19:31;;;;;;;;;;;;;;;20.06;65.86;96422.86;591113;240;66251;-69
2022/11/05 06:21:59;;;;;;;;;;;;;;;20.08;65.91;96427.89;591132;240;62757;-69
2022/11/05 06:24:26;;;;;;;;;;;;;;;20.08;66.36;96428.72;591155;240;68691;-69
2022/11/05 06:26:54;;;;;;;;;;;;;;;20.07;65.56;96435.11;591204;240;68361;-69
2022/11/05 06:29:21;;;;;;;;;;;;;;;20.08;65.92;96422.56;591183;240;65366;-68
2022/11/05 06:31:48;;;;;;;;;;;;;;;20.08;66.01;96423.38;591207;240;68400;-69
2022/11/05 06:34:16;;;;;;;;;;;;;;;20.07;66.09;96437.78;591148;240;68258;-69
2022/11/05 06:36:43;;;;;;;;;;;;;;;20.09;66.10;96438.30;591198;240;64763;-68
2022/11/05 06:39:12;;;;;;;;;;;;;;;20.09;66.02;96440.97;591221;240;68749;-69
2022/11/05 06:41:39;;;;;;;;;;;;;;;20.09;65.05;96435.63;591156;240;68855;-69
2022/11/05 06:44:07;;;;;;;;;;;;;;;20.10;65.37;96428.42;591208;240;64910;-68
2022/11/05 06:46:34;;;;;;;;;;;;;;;20.09;65.37;96429.51;591194;240;69713;-70
2022/11/05 06:49:02;;;;;;;;;;;;;;;20.10;65.28;96426.55;591255;240;68724;-70
2022/11/05 06:51:29;;;;;;;;;;;;;;;20.10;65.47;96423.09;591227;240;64964;-70
2022/11/05 06:53:57;;;;;;;;;;;;;;;20.09;65.84;96419.63;591345;240;68886;-70
2022/11/05 06:56:26;;;;;;;;;;;;;;;20.10;65.81;96421.21;591286;239;53367;-70
2022/11/05 06:58:54;;;;;;;;;;;;;;;20.10;66.13;96415.08;591305;240;65053;-69
2022/11/05 07:01:22;;;;;;;;;;;;;;;20.09;66.23;96414.30;591266;240;66580;-69
2022/11/05 07:03:49;;;;;;;;;;;;;;;20.10;66.10;96407.08;591330;240;68634;-69
2022/11/05 07:06:17;;;;;;;;;;;;;;;20.10;65.94;96415.08;591321;240;65253;-70
2022/11/05 07:08:44;;;;;;;;;;;;;;;20.09;66.07;96414.30;591272;240;69007;-69
2022/11/05 07:11:11;;;;;;;;;;;;;;;20.10;66.09;96412.42;591237;240;68870;-69
2022/11/05 07:13:39;;;;;;;;;;;;;;;20.10;66.25;96404.41;591228;240;62753;-70
2022/11/05 07:16:07;;;;;;;;;;;;;;;20.09;66.38;96408.96;591253;240;68465;-70
2022/11/05 07:18:35;;;;;;;;;;;;;;;20.10;66.43;96405.20;591155;240;68499;-69
2022/11/05 07:21:03;;;;;;;;;;;;;;;20.09;65.99;96400.95;591298;240;62873;-69
2022/11/05 07:23:30;;;;;;;;;;;;;;;20.09;66.63;96392.95;591146;239;66585;-69
2022/11/05 07:25:59;;;;;;;;;;;;;;;20.10;66.58;96399.08;591232;239;68545;-70
2022/11/05 07:28:26;;;;;;;;;;;;;;;20.10;66.72;96399.88;591197;240;64888;-69
2022/11/05 07:30:54;;;;;;;;;;;;;;;20.10;66.60;96399.88;591233;240;68339;-70
2022/11/05 07:33:21;;;;;;;;;;;;;;;20.10;66.86;96397.20;591245;240;68558;-70
2022/11/05 07:35:49;;;;;;;;;;;;;;;20.10;66.29;96383.87;591137;240;65209;-68
2022/11/05 07:38:17;;;;;;;;;;;;;;;20.10;66.33;96383.87;591231;240;69045;-69
2022/11/05 07:40:45;;;;;;;;;;;;;;;20.10;65.92;96389.20;591168;240;68686;-70
2022/11/05 07:43:16;;;;;;;;;;;;;;;20.10;66.69;96385.74;591186;239;62897;-70
2022/11/05 07:45:45;;;;;;;;;;;;;;;20.10;66.67;96381.20;591209;240;68807;-71
2022/11/05 07:48:13;;;;;;;;;;;;;;;20.10;66.66;96377.73;591237;240;68479;-69
2022/11/05 07:50:40;;;;;;;;;;;;;;;20.10;66.70;96375.86;591177;240;62815;-69
2022/11/05 07:53:09;;;;;;;;;;;;;;;20.10;66.44;96370.53;591306;240;66610;-69
2022/11/05 07:55:39;;;;;;;;;;;;;;;20.10;66.11;96369.73;591187;240;66600;-69
2022/11/05 07:58:06;;;;;;;;;;;;;;;20.10;66.25;96372.41;591288;239;65302;-69
2022/11/05 08:00:34;;;;;;;;;;;;;;;20.09;67.43;96366.28;590301;238;68838;-69
2022/11/05 08:03:06;;;;;;;;;;;;;;;20.09;67.00;96371.61;591136;239;68815;-69
2022/11/05 08:05:36;;;;;;;;;;;;;;;20.09;67.16;96366.28;591244;236;45125;-69
2022/11/05 08:08:07;;;;;;;;;;;;;;;20.10;67.61;96372.41;591268;239;49876;-69
2022/11/05 08:10:35;;;;;;;;;;;;;;;20.09;66.81;96360.95;591129;240;66491;-69
2022/11/05 08:13:04;;;;;;;;;;;;;;;20.10;66.81;96357.19;591232;240;62944;-69
2022/11/05 08:15:32;;;;;;;;;;;;;;;20.10;66.96;96359.06;591163;240;68844;-69
2022/11/05 08:18:04;;;;;;;;;;;;;;;20.09;66.47;96354.82;591181;240;66377;-69
2022/11/05 08:20:32;;;;;;;;;;;;;;;20.10;67.23;96353.73;591151;240;64919;-69
2022/11/05 08:22:59;;;;;;;;;;;;;;;20.07;67.11;96344.42;591163;239;68673;-69
2022/11/05 08:25:27;;;;;;;;;;;;;;;20.08;67.19;96340.69;591192;240;68937;-69
2022/11/05 08:27:56;;;;;;;;;;;;;;;20.09;66.66;96352.94;591051;240;64905;-69
2022/11/05 08:30:26;;;;;;;;;;;;;;;20.09;67.00;96338.81;591138;239;47418;-69
2022/11/05 08:32:58;;;;;;;;;;;;;;;20.09;66.64;96347.61;591115;240;68545;-69
2022/11/05 08:35:26;;;;;;;;;;;;;;;20.10;66.38;96345.73;591210;235;64776;-69
2022/11/05 08:37:57;;;;;;;;;;;;;;;20.09;67.34;96339.61;591202;240;68775;-68
2022/11/05 08:40:25;;;;;;;;;;;;;;;20.08;67.34;96338.03;591137;240;66679;-68
2022/11/05 08:42:52;;;;;;;;;;;;;;;20.09;67.49;96339.61;591162;240;62934;-68
2022/11/05 08:45:20;;;;;;;;;;;;;;;20.09;66.66;96336.15;591226;239;65829;-69
2022/11/05 08:47:48;;;;;;;;;;;;;;;20.09;67.74;96338.81;591173;240;68689;-68
2022/11/05 08:50:15;;;;;;;;;;;;;;;20.09;67.28;96338.81;591193;240;65077;-68
2022/11/05 08:52:43;;;;;;;;;;;;;;;20.09;66.97;96342.27;591206;240;69058;-68
2022/11/05 08:55:10;;;;;;;;;;;;;;;20.08;66.09;96338.03;591207;240;68702;-68
2022/11/05 08:57:38;;;;;;;;;;;;;;;20.09;66.61;96338.81;591198;240;65050;-68
2022/11/05 09:00:06;;;;;;;;;;;;;;;20.08;67.24;96332.69;591173;240;68888;-69
2022/11/05 09:02:33;;;;;;;;;;;;;;;20.09;67.15;96341.48;591149;239;68860;-69
2022/11/05 09:05:01;;;;;;;;;;;;;;;20.07;66.62;96336.41;591128;240;64876;-69
2022/11/05 09:07:28;;;;;;;;;;;;;;;20.09;66.61;96333.48;591169;240;68600;-69
2022/11/05 09:09:56;;;;;;;;;;;;;;;20.08;66.97;96337.20;591176;240;68572;-69
2022/11/05 09:12:23;;;;;;;;;;;;;;;20.08;67.11;96332.69;591220;240;65377;-69
2022/11/05 09:14:51;;;;;;;;;;;;;;;20.08;66.73;96329.20;591180;240;69575;-69
2022/11/05 09:17:19;;;;;;;;;;;;;;;20.08;66.72;96329.20;591111;239;68788;-69
2022/11/05 09:19:47;;;;;;;;;;;;;;;20.08;67.07;96337.20;591138;240;64930;-68
2022/11/05 09:22:15;;;;;;;;;;;;;;;20.07;66.46;96331.08;591159;239;68655;-69
2022/11/05 09:24:43;;;;;;;;;;;;;;;20.08;66.65;96334.54;591206;240;68558;-69
2022/11/05 09:27:16;;;;;;;;;;;;;;;20.07;66.53;96331.08;591171;240;64714;-69
2022/11/05 09:29:43;;;;;;;;;;;;;;;20.07;67.03;96328.41;591067;239;68790;-69
2022/11/05 09:32:11;;;;;;;;;;;;;;;20.07;66.84;96336.41;591201;240;66290;-69
2022/11/05 09:34:38;;;;;;;;;;;;;;;20.07;66.33;96332.95;591187;239;62770;-70
2022/11/05 09:37:06;;;;;;;;;;;;;;;20.07;66.64;96336.41;591195;240;66463;-69
2022/11/05 09:39:33;;;;;;;;;;;;;;;20.07;66.21;96336.41;591164;240;68889;-70
2022/11/05 09:42:02;;;;;;;;;;;;;;;20.07;66.47;96338.30;591207;240;64959;-70
2022/11/05 09:44:31;;;;;;;;;;;;;;;20.07;66.41;96341.75;591170;238;69441;-70
2022/11/05 09:47:00;;;;;;;;;;;;;;;20.07;66.79;96346.30;591369;236;68518;-70
2022/11/05 09:49:29;;;;;;;;;;;;;;;20.07;65.96;96348.96;591169;240;64884;-69
2022/11/05 09:51:58;;;;;;;;;;;;;;;20.07;66.27;96355.09;591248;240;66494;-70
2022/11/05 09:54:27;;;;;;;;;;;;;;;20.07;66.06;96355.09;591185;240;68552;-70
2022/11/05 09:56:55;;;;;;;;;;;;;;;20.06;66.23;96348.17;591288;240;66298;-70
2022/11/05 09:59:24;;;;;;;;;;;;;;;20.06;66.48;96356.17;591138;240;68605;-70
2022/11/05 10:01:53;;;;;;;;;;;;;;;20.06;66.49;96350.84;589557;236;68741;-68
2022/11/05 10:04:22;;;;;;;;;;;;;;;20.06;66.41;96353.51;587479;237;65066;-70
2022/11/05 10:06:51;;;;;;;;;;;;;;;20.06;66.22;96355.38;587555;241;66735;-70
2022/11/05 10:09:26;;;;;;;;;;;;;;;20.06;66.86;96353.51;587503;241;66399;-70
2022/11/05 10:11:55;;;;;;;;;;;;;;;20.06;65.87;96350.84;587558;241;62763;-69
2022/11/05 10:14:25;;;;;;;;;;;;;;;20.06;66.02;96363.39;587428;240;66683;-68
2022/11/05 10:16:54;;;;;;;;;;;;;;;20.06;66.37;96361.51;587613;241;68584;-68
2022/11/05 10:19:26;;;;;;;;;;;;;;;20.05;66.00;96351.92;587558;241;65078;-68
2022/11/05 10:21:58;;;;;;;;;;;;;;;20.05;66.07;96351.92;587632;241;68636;-68
2022/11/05 10:24:25;;;;;;;;;;;;;;;20.06;66.30;96353.51;587556;237;68437;-68
2022/11/05 10:26:54;;;;;;;;;;;;;;;20.05;65.77;96338.59;587569;241;64878;-68
2022/11/05 10:29:29;;;;;;;;;;;;;;;20.06;65.34;96344.72;587455;241;66317;-68
2022/11/05 10:31:58;;;;;;;;;;;;;;;20.06;65.99;96340.17;587556;241;66358;-69
2022/11/05 10:34:27;;;;;;;;;;;;;;;20.05;66.62;96343.92;587394;241;64915;-68
2022/11/05 10:36:54;;;;;;;;;;;;;;;20.06;65.89;96345.50;587519;237;68344;-68
2022/11/05 10:39:23;;;;;;;;;;;;;;;20.05;66.36;96354.59;587512;241;68204;-68
2022/11/05 10:42:07;;;;;;;;;;;;;;;20.05;66.12;96346.59;587559;241;65095;-69
2022/11/05 10:44:36;;;;;;;;;;;;;;;20.04;66.30;96344.98;587480;241;66180;-70
2022/11/05 10:47:21;;;;;;;;;;;;;;;20.05;66.44;96343.92;587612;237;66174;-70
2022/11/05 10:49:59;;;;;;;;;;;;;;;20.05;65.87;96337.77;587491;241;64891;-70
2022/11/05 10:52:43;;;;;;;;;;;;;;;20.05;66.04;96335.10;587462;241;66472;-70
2022/11/05 10:55:18;;;;;;;;;;;;;;;20.04;65.54;96336.98;587476;241;66756;-70
2022/11/05 10:57:48;;;;;;;;;;;;;;;20.03;65.47;96311.40;588055;237;63644;-70
2022/11/05 11:00:17;;;;;;;;;;;;;;;20.04;66.23;96322.86;587459;240;68737;-69
2022/11/05 11:02:52;;;;;;;;;;;;;;;20.04;66.18;96314.85;590451;240;68544;-69
2022/11/05 11:05:21;;;;;;;;;;;;;;;20.03;65.45;96316.73;591237;236;62799;-69
2022/11/05 11:07:53;;;;;;;;;;;;;;;20.04;66.21;96307.64;591245;240;69830;-69
2022/11/05 11:10:22;;;;;;;;;;;;;;;20.03;65.67;96316.73;591308;236;66390;-69
2022/11/05 11:12:50;;;;;;;;;;;;;;;20.04;65.06;96314.85;591336;240;62801;-69
2022/11/05 11:15:22;;;;;;;;;;;;;;;20.03;65.10;96311.40;591327;240;68341;-69
2022/11/05 11:17:50;;;;;;;;;;;;;;;20.04;65.72;96309.52;591298;240;68571;-70
2022/11/05 11:20:22;;;;;;;;;;;;;;;20.04;65.17;96309.52;591302;240;64862;-69
2022/11/05 11:22:51;;;;;;;;;;;;;;;20.03;64.69;96298.06;591269;240;66653;-69
2022/11/05 11:25:20;;;;;;;;;;;;;;;20.04;65.61;96312.98;591330;236;68540;-69
2022/11/05 11:27:48;;;;;;;;;;;;;;;20.04;66.03;96298.85;591281;236;64798;-69
2022/11/05 11:30:17;;;;;;;;;;;;;;;20.04;65.54;96309.52;591322;240;68694;-69
2022/11/05 11:32:45;;;;;;;;;;;;;;;20.03;64.62;96300.73;591211;240;68555;-69
2022/11/05 11:35:21;;;;;;;;;;;;;;;20.04;65.24;96298.85;591226;239;64872;-69
2022/11/05 11:37:50;;;;;;;;;;;;;;;20.03;65.68;96297.27;591171;240;66704;-70
2022/11/05 11:40:22;;;;;;;;;;;;;;;20.04;65.68;96298.85;591231;239;66673;-70
2022/11/05 11:42:54;;;;;;;;;;;;;;;20.04;65.45;96301.52;591155;240;62941;-70
2022/11/05 11:45:29;;;;;;;;;;;;;;;20.03;65.11;96292.73;591177;240;68675;-70
2022/11/05 11:47:57;;;;;;;;;;;;;;;20.03;65.04;96300.73;591403;236;66489;-70
2022/11/05 11:50:35;;;;;;;;;;;;;;;20.03;65.62;96298.06;591197;240;62722;-70
2022/11/05 11:53:22;;;;;;;;;;;;;;;20.03;64.96;96299.94;591203;240;68655;-70
2022/11/05 11:56:01;;;;;;;;;;;;;;;20.04;65.29;96298.85;591174;239;69358;-70
2022/11/05 11:58:46;;;;;;;;;;;;;;;20.02;65.40;96301.78;591176;239;62773;-70
2022/11/05 12:01:18;;;;;;;;;;;;;;;20.03;65.37;96303.39;591181;240;68650;-69
2022/11/05 12:03:47;;;;;;;;;;;;;;;20.02;65.41;96304.45;591430;236;68415;-69
2022/11/05 12:06:16;;;;;;;;;;;;;;;20.02;65.18;96303.66;591249;240;62796;-69
2022/11/05 12:08:59;;;;;;;;;;;;;;;20.01;65.14;96305.54;591478;236;66487;-70
2022/11/05 12:11:28;;;;;;;;;;;;;;;20.02;65.04;96307.13;591199;240;68939;-69
2022/11/05 12:14:01;;;;;;;;;;;;;;;20.01;65.38;96310.88;591319;236;64878;-69
2022/11/05 12:16:36;;;;;;;;;;;;;;;20.02;65.84;96320.45;591184;240;67624;-69
2022/11/05 12:19:08;;;;;;;;;;;;;;;20.02;65.45;96323.12;591187;240;66383;-69
2022/11/05 12:21:55;;;;;;;;;;;;;;;20.02;64.95;96309.78;591129;237;64913;-69
2022/11/05 12:24:40;;;;;;;;;;;;;;;20.02;65.58;96317.00;591244;239;68617;-69
2022/11/05 12:27:12;;;;;;;;;;;;;;;20.01;65.29;96310.08;591187;240;68566;-69
2022/11/05 12:29:48;;;;;;;;;;;;;;;20.01;65.45;96310.08;591413;236;62031;-70
2022/11/05 12:32:17;;;;;;;;;;;;;;;20.02;65.54;96317.78;591219;240;68508;-69
2022/11/05 12:34:55;;;;;;;;;;;;;;;20.01;65.48;96318.09;591185;240;68716;-70
2022/11/05 12:37:24;;;;;;;;;;;;;;;20.01;65.03;96320.75;591191;240;63157;-70
2022/11/05 12:40:00;;;;;;;;;;;;;;;20.00;64.68;96319.97;591137;240;68869;-70
2022/11/05 12:42:31;;;;;;;;;;;;;;;20.01;65.48;96308.20;591200;240;68759;-70
2022/11/05 12:45:03;;;;;;;;;;;;;;;20.01;65.22;96310.88;591451;236;65039;-69
2022/11/05 12:47:42;;;;;;;;;;;;;;;20.01;65.07;96320.75;591218;236;69804;-70
2022/11/05 12:50:11;;;;;;;;;;;;;;;20.00;65.42;96322.63;591320;236;66475;-71
2022/11/05 12:52:49;;;;;;;;;;;;;;;20.00;65.33;96313.81;591199;240;62996;-69
2022/11/05 12:55:24;;;;;;;;;;;;;;;20.01;65.93;96320.75;591182;240;69828;-70
2022/11/05 12:57:53;;;;;;;;;;;;;;;20.00;65.29;96319.97;591321;240;68476;-70
2022/11/05 13:00:22;;;;;;;;;;;;;;;20.00;65.55;96314.63;591223;240;64965;-70
2022/11/05 13:02:54;;;;;;;;;;;;;;;20.01;65.06;96318.09;591295;236;68633;-70
2022/11/05 13:05:23;;;;;;;;;;;;;;;20.01;65.29;96307.42;591467;236;68583;-69
2022/11/05 13:07:58;;;;;;;;;;;;;;;20.00;65.36;96309.30;591355;240;65115;-69
2022/11/05 13:10:33;;;;;;;;;;;;;;;20.01;65.12;96316.20;591584;236;68750;-69
2022/11/05 13:13:08;;;;;;;;;;;;;;;20.01;65.01;96310.08;591359;236;68779;-69
2022/11/05 13:15:37;;;;;;;;;;;;;;;20.00;65.47;96309.30;591555;236;65074;-69
2022/11/05 13:18:06;;;;;;;;;;;;;;;20.00;65.45;96303.96;592264;235;68852;-69
2022/11/05 13:20:35;;;;;;;;;;;;;;;20.00;64.39;96309.30;591397;236;66362;-69
2022/11/05 13:23:16;;;;;;;;;;;;;;;20.01;64.51;96305.54;591344;236;63155;-69
2022/11/05 13:25:48;;;;;;;;;;;;;;;20.01;65.35;96313.55;591373;240;68825;-69
2022/11/05 13:28:16;;;;;;;;;;;;;;;20.01;65.36;96310.88;591367;240;67013;-69
2022/11/05 13:30:45;;;;;;;;;;;;;;;20.01;64.85;96310.08;591414;236;63001;-69
2022/11/05 13:33:17;;;;;;;;;;;;;;;20.01;65.64;96310.08;591344;236;66560;-69
2022/11/05 13:35:46;;;;;;;;;;;;;;;20.00;65.34;96309.30;591305;236;66606;-69
2022/11/05 13:41:17;;;;;;;;;;;;;;;20.01;65.46;96318.09;591273;240;68706;-69
2022/11/05 13:43:47;;;;;;;;;;;;;;;20.00;65.60;96314.63;591100;239;67409;-69